sensor_id;sensor_type;location;lat;lon;timestamp;temperature;humidity
3298;DHT22;1661;53.572;10.174;2023-07-20T00:00:06;16.70;77.80
3298;DHT22;1661;53.572;10.174;2023-07-20T00:02:34;16.70;77.50
3298;DHT22;1661;53.572;10.174;2023-07-20T00:05:01;16.70;77.70
3298;DHT22;1661;53.572;10.174;2023-07-20T00:07:27;16.70;77.50
3298;DHT22;1661;53.572;10.174;2023-07-20T00:09:56;16.70;77.30
3298;DHT22;1661;53.572;10.174;2023-07-20T00:12:23;16.70;77.60
3298;DHT22;1661;53.572;10.174;2023-07-20T00:14:49;16.70;77.80
3298;DHT22;1661;53.572;10.174;2023-07-20T00:17:19;16.70;78.60
3298;DHT22;1661;53.572;10.174;2023-07-20T00:19:45;16.60;78.90
3298;DHT22;1661;53.572;10.174;2023-07-20T00:22:12;16.70;79.20
3298;DHT22;1661;53.572;10.174;2023-07-20T00:24:39;16.60;78.80
3298;DHT22;1661;53.572;10.174;2023-07-20T00:27:07;16.70;78.90
3298;DHT22;1661;53.572;10.174;2023-07-20T00:29:34;16.70;79.60
3298;DHT22;1661;53.572;10.174;2023-07-20T00:32:01;16.70;79.50
3298;DHT22;1661;53.572;10.174;2023-07-20T00:34:30;16.70;79.20
3298;DHT22;1661;53.572;10.174;2023-07-20T00:36:57;16.70;79.20
3298;DHT22;1661;53.572;10.174;2023-07-20T00:39:24;16.80;78.80
3298;DHT22;1661;53.572;10.174;2023-07-20T00:41:50;16.80;78.90
3298;DHT22;1661;53.572;10.174;2023-07-20T00:44:18;16.80;79.20
3298;DHT22;1661;53.572;10.174;2023-07-20T00:46:45;16.80;79.70
3298;DHT22;1661;53.572;10.174;2023-07-20T00:49:13;16.80;79.00
3298;DHT22;1661;53.572;10.174;2023-07-20T00:51:41;16.80;79.60
3298;DHT22;1661;53.572;10.174;2023-07-20T00:54:08;16.80;80.30
3298;DHT22;1661;53.572;10.174;2023-07-20T00:56:35;16.80;80.20
3298;DHT22;1661;53.572;10.174;2023-07-20T00:59:09;16.80;79.30
3298;DHT22;1661;53.572;10.174;2023-07-20T01:01:37;16.90;79.20
3298;DHT22;1661;53.572;10.174;2023-07-20T01:04:04;16.90;79.80
3298;DHT22;1661;53.572;10.174;2023-07-20T01:06:36;16.90;80.10
3298;DHT22;1661;53.572;10.174;2023-07-20T01:09:13;16.90;80.30
3298;DHT22;1661;53.572;10.174;2023-07-20T01:11:49;16.90;80.70
3298;DHT22;1661;53.572;10.174;2023-07-20T01:14:17;16.90;80.70
3298;DHT22;1661;53.572;10.174;2023-07-20T01:16:46;16.80;81.50
3298;DHT22;1661;53.572;10.174;2023-07-20T01:19:15;16.80;81.40
3298;DHT22;1661;53.572;10.174;2023-07-20T01:21:45;16.80;81.20
3298;DHT22;1661;53.572;10.174;2023-07-20T01:24:34;16.90;81.90
3298;DHT22;1661;53.572;10.174;2023-07-20T01:30:20;16.80;82.40
3298;DHT22;1661;53.572;10.174;2023-07-20T01:32:54;16.80;82.50
3298;DHT22;1661;53.572;10.174;2023-07-20T01:35:24;16.80;82.00
3298;DHT22;1661;53.572;10.174;2023-07-20T01:37:54;16.80;83.10
3298;DHT22;1661;53.572;10.174;2023-07-20T01:40:22;16.80;83.50
3298;DHT22;1661;53.572;10.174;2023-07-20T01:42:51;16.70;83.20
3298;DHT22;1661;53.572;10.174;2023-07-20T01:45:19;16.70;83.10
3298;DHT22;1661;53.572;10.174;2023-07-20T01:47:45;16.70;83.10
3298;DHT22;1661;53.572;10.174;2023-07-20T01:50:14;16.70;83.50
3298;DHT22;1661;53.572;10.174;2023-07-20T01:52:40;16.60;83.80
3298;DHT22;1661;53.572;10.174;2023-07-20T01:55:08;16.60;82.80
3298;DHT22;1661;53.572;10.174;2023-07-20T01:57:35;16.70;82.30
3298;DHT22;1661;53.572;10.174;2023-07-20T02:00:02;16.70;81.80
3298;DHT22;1661;53.572;10.174;2023-07-20T02:02:29;16.70;82.30
3298;DHT22;1661;53.572;10.174;2023-07-20T02:04:56;16.80;82.50
3298;DHT22;1661;53.572;10.174;2023-07-20T02:07:24;16.80;81.90
3298;DHT22;1661;53.572;10.174;2023-07-20T02:09:51;16.80;81.90
3298;DHT22;1661;53.572;10.174;2023-07-20T02:12:18;16.80;81.20
3298;DHT22;1661;53.572;10.174;2023-07-20T02:14:45;16.80;81.90
3298;DHT22;1661;53.572;10.174;2023-07-20T02:17:12;16.80;82.70
3298;DHT22;1661;53.572;10.174;2023-07-20T02:19:40;16.80;83.20
3298;DHT22;1661;53.572;10.174;2023-07-20T02:22:07;16.70;83.50
3298;DHT22;1661;53.572;10.174;2023-07-20T02:24:35;16.70;84.10
3298;DHT22;1661;53.572;10.174;2023-07-20T02:27:02;16.70;84.00
3298;DHT22;1661;53.572;10.174;2023-07-20T02:29:29;16.70;84.30
3298;DHT22;1661;53.572;10.174;2023-07-20T02:31:56;16.70;83.70
3298;DHT22;1661;53.572;10.174;2023-07-20T02:34:23;16.70;83.10
3298;DHT22;1661;53.572;10.174;2023-07-20T02:36:49;16.70;83.30
3298;DHT22;1661;53.572;10.174;2023-07-20T02:39:16;16.70;84.60
3298;DHT22;1661;53.572;10.174;2023-07-20T02:41:44;16.70;85.40
3298;DHT22;1661;53.572;10.174;2023-07-20T02:44:11;16.70;85.00
3298;DHT22;1661;53.572;10.174;2023-07-20T02:46:38;16.70;85.40
3298;DHT22;1661;53.572;10.174;2023-07-20T02:49:05;16.70;84.80
3298;DHT22;1661;53.572;10.174;2023-07-20T02:51:32;16.70;85.00
3298;DHT22;1661;53.572;10.174;2023-07-20T02:53:59;16.70;85.90
3298;DHT22;1661;53.572;10.174;2023-07-20T02:56:26;16.70;85.30
3298;DHT22;1661;53.572;10.174;2023-07-20T02:58:54;16.70;85.30
3298;DHT22;1661;53.572;10.174;2023-07-20T03:01:21;16.70;85.40
3298;DHT22;1661;53.572;10.174;2023-07-20T03:03:48;16.70;84.60
3298;DHT22;1661;53.572;10.174;2023-07-20T03:06:15;16.70;85.20
3298;DHT22;1661;53.572;10.174;2023-07-20T03:08:42;16.70;85.10
3298;DHT22;1661;53.572;10.174;2023-07-20T03:11:13;16.70;84.20
3298;DHT22;1661;53.572;10.174;2023-07-20T03:13:40;16.80;84.50
3298;DHT22;1661;53.572;10.174;2023-07-20T03:16:09;16.80;84.40
3298;DHT22;1661;53.572;10.174;2023-07-20T03:18:36;16.80;84.60
3298;DHT22;1661;53.572;10.174;2023-07-20T03:21:04;16.80;84.70
3298;DHT22;1661;53.572;10.174;2023-07-20T03:23:31;16.80;85.60
3298;DHT22;1661;53.572;10.174;2023-07-20T03:25:58;16.80;85.80
3298;DHT22;1661;53.572;10.174;2023-07-20T03:28:25;16.80;85.20
3298;DHT22;1661;53.572;10.174;2023-07-20T03:30:53;16.80;85.70
3298;DHT22;1661;53.572;10.174;2023-07-20T03:33:22;16.80;85.80
3298;DHT22;1661;53.572;10.174;2023-07-20T03:35:49;16.80;86.10
3298;DHT22;1661;53.572;10.174;2023-07-20T03:38:16;16.80;86.30
3298;DHT22;1661;53.572;10.174;2023-07-20T03:40:49;16.80;86.00
3298;DHT22;1661;53.572;10.174;2023-07-20T03:43:15;16.70;86.00
3298;DHT22;1661;53.572;10.174;2023-07-20T03:45:42;16.70;86.00
3298;DHT22;1661;53.572;10.174;2023-07-20T03:48:09;16.70;86.10
3298;DHT22;1661;53.572;10.174;2023-07-20T03:50:37;16.70;86.20
3298;DHT22;1661;53.572;10.174;2023-07-20T03:53:04;16.70;86.00
3298;DHT22;1661;53.572;10.174;2023-07-20T03:55:31;16.70;86.30
3298;DHT22;1661;53.572;10.174;2023-07-20T03:57:58;16.70;86.20
3298;DHT22;1661;53.572;10.174;2023-07-20T04:00:25;16.70;86.10
3298;DHT22;1661;53.572;10.174;2023-07-20T04:02:51;16.60;85.40
3298;DHT22;1661;53.572;10.174;2023-07-20T04:05:18;16.60;85.50
3298;DHT22;1661;53.572;10.174;2023-07-20T04:07:46;16.60;85.40
3298;DHT22;1661;53.572;10.174;2023-07-20T04:10:13;16.60;85.60
3298;DHT22;1661;53.572;10.174;2023-07-20T04:12:40;16.60;85.40
3298;DHT22;1661;53.572;10.174;2023-07-20T04:15:08;16.60;85.50
3298;DHT22;1661;53.572;10.174;2023-07-20T04:17:35;16.60;85.90
3298;DHT22;1661;53.572;10.174;2023-07-20T04:20:02;16.60;86.00
3298;DHT22;1661;53.572;10.174;2023-07-20T04:22:29;16.60;85.50
3298;DHT22;1661;53.572;10.174;2023-07-20T04:24:57;16.60;86.10
3298;DHT22;1661;53.572;10.174;2023-07-20T04:27:24;16.60;86.10
3298;DHT22;1661;53.572;10.174;2023-07-20T04:29:51;16.60;86.30
3298;DHT22;1661;53.572;10.174;2023-07-20T04:32:18;16.60;86.00
3298;DHT22;1661;53.572;10.174;2023-07-20T04:34:45;16.60;85.50
3298;DHT22;1661;53.572;10.174;2023-07-20T04:37:12;16.70;85.40
3298;DHT22;1661;53.572;10.174;2023-07-20T04:39:38;16.70;85.10
3298;DHT22;1661;53.572;10.174;2023-07-20T04:42:07;16.70;85.20
3298;DHT22;1661;53.572;10.174;2023-07-20T04:44:34;16.80;84.80
3298;DHT22;1661;53.572;10.174;2023-07-20T04:47:00;16.80;85.30
3298;DHT22;1661;53.572;10.174;2023-07-20T04:49:28;16.80;85.20
3298;DHT22;1661;53.572;10.174;2023-07-20T04:51:54;16.90;85.00
3298;DHT22;1661;53.572;10.174;2023-07-20T04:54:21;16.90;84.60
3298;DHT22;1661;53.572;10.174;2023-07-20T04:56:48;16.90;85.40
3298;DHT22;1661;53.572;10.174;2023-07-20T04:59:16;16.90;85.50
3298;DHT22;1661;53.572;10.174;2023-07-20T05:01:43;16.90;85.30
3298;DHT22;1661;53.572;10.174;2023-07-20T05:04:10;16.90;85.40
3298;DHT22;1661;53.572;10.174;2023-07-20T05:06:36;16.90;85.90
3298;DHT22;1661;53.572;10.174;2023-07-20T05:09:04;16.90;85.70
3298;DHT22;1661;53.572;10.174;2023-07-20T05:11:33;16.90;85.70
3298;DHT22;1661;53.572;10.174;2023-07-20T05:14:00;16.90;85.70
3298;DHT22;1661;53.572;10.174;2023-07-20T05:16:28;17.00;85.30
3298;DHT22;1661;53.572;10.174;2023-07-20T05:18:55;17.00;85.00
3298;DHT22;1661;53.572;10.174;2023-07-20T05:21:22;17.00;85.20
3298;DHT22;1661;53.572;10.174;2023-07-20T05:23:49;17.00;85.40
3298;DHT22;1661;53.572;10.174;2023-07-20T05:26:16;17.00;85.20
3298;DHT22;1661;53.572;10.174;2023-07-20T05:28:43;17.00;85.40
3298;DHT22;1661;53.572;10.174;2023-07-20T05:31:09;16.80;86.20
3298;DHT22;1661;53.572;10.174;2023-07-20T05:33:38;16.70;86.50
3298;DHT22;1661;53.572;10.174;2023-07-20T05:36:05;16.70;86.50
3298;DHT22;1661;53.572;10.174;2023-07-20T05:38:31;16.70;86.40
3298;DHT22;1661;53.572;10.174;2023-07-20T05:41:00;16.70;86.30
3298;DHT22;1661;53.572;10.174;2023-07-20T05:43:27;16.80;86.50
3298;DHT22;1661;53.572;10.174;2023-07-20T05:45:54;16.80;86.40
3298;DHT22;1661;53.572;10.174;2023-07-20T05:48:21;16.80;86.30
3298;DHT22;1661;53.572;10.174;2023-07-20T05:50:49;16.90;86.30
3298;DHT22;1661;53.572;10.174;2023-07-20T05:53:16;17.00;86.00
3298;DHT22;1661;53.572;10.174;2023-07-20T05:55:43;17.00;86.30
3298;DHT22;1661;53.572;10.174;2023-07-20T05:58:10;17.10;86.10
3298;DHT22;1661;53.572;10.174;2023-07-20T06:00:36;17.20;85.70
3298;DHT22;1661;53.572;10.174;2023-07-20T06:03:03;17.30;86.50
3298;DHT22;1661;53.572;10.174;2023-07-20T06:05:30;17.40;86.30
3298;DHT22;1661;53.572;10.174;2023-07-20T06:07:58;17.50;85.50
3298;DHT22;1661;53.572;10.174;2023-07-20T06:10:26;17.60;86.00
3298;DHT22;1661;53.572;10.174;2023-07-20T06:12:53;17.60;84.80
3298;DHT22;1661;53.572;10.174;2023-07-20T06:15:27;17.70;84.80
3298;DHT22;1661;53.572;10.174;2023-07-20T06:17:55;17.70;84.90
3298;DHT22;1661;53.572;10.174;2023-07-20T06:20:23;17.80;84.80
3298;DHT22;1661;53.572;10.174;2023-07-20T06:22:50;18.00;84.90
3298;DHT22;1661;53.572;10.174;2023-07-20T06:25:18;18.10;83.80
3298;DHT22;1661;53.572;10.174;2023-07-20T06:27:46;18.20;83.20
3298;DHT22;1661;53.572;10.174;2023-07-20T06:30:13;18.20;81.70
3298;DHT22;1661;53.572;10.174;2023-07-20T06:32:39;18.10;82.40
3298;DHT22;1661;53.572;10.174;2023-07-20T06:35:07;18.30;81.70
3298;DHT22;1661;53.572;10.174;2023-07-20T06:37:34;18.30;79.80
3298;DHT22;1661;53.572;10.174;2023-07-20T06:40:02;18.30;80.30
3298;DHT22;1661;53.572;10.174;2023-07-20T06:42:30;18.40;78.80
3298;DHT22;1661;53.572;10.174;2023-07-20T06:44:57;18.40;77.90
3298;DHT22;1661;53.572;10.174;2023-07-20T06:47:24;18.50;78.50
3298;DHT22;1661;53.572;10.174;2023-07-20T06:49:51;18.70;78.90
3298;DHT22;1661;53.572;10.174;2023-07-20T06:52:18;18.90;78.50
3298;DHT22;1661;53.572;10.174;2023-07-20T06:54:45;19.00;77.20
3298;DHT22;1661;53.572;10.174;2023-07-20T06:57:12;19.10;76.70
3298;DHT22;1661;53.572;10.174;2023-07-20T06:59:40;19.10;77.00
3298;DHT22;1661;53.572;10.174;2023-07-20T07:02:07;19.10;76.10
3298;DHT22;1661;53.572;10.174;2023-07-20T07:04:34;19.10;75.80
3298;DHT22;1661;53.572;10.174;2023-07-20T07:07:01;19.10;75.30
3298;DHT22;1661;53.572;10.174;2023-07-20T07:09:29;19.10;76.00
3298;DHT22;1661;53.572;10.174;2023-07-20T07:11:55;19.10;75.80
3298;DHT22;1661;53.572;10.174;2023-07-20T07:14:22;19.20;75.40
3298;DHT22;1661;53.572;10.174;2023-07-20T07:16:50;19.30;74.60
3298;DHT22;1661;53.572;10.174;2023-07-20T07:19:17;19.40;73.30
3298;DHT22;1661;53.572;10.174;2023-07-20T07:21:44;19.40;73.00
3298;DHT22;1661;53.572;10.174;2023-07-20T07:24:11;19.40;73.30
3298;DHT22;1661;53.572;10.174;2023-07-20T07:26:38;19.60;72.00
3298;DHT22;1661;53.572;10.174;2023-07-20T07:29:05;19.70;71.80
3298;DHT22;1661;53.572;10.174;2023-07-20T07:31:34;19.80;71.50
3298;DHT22;1661;53.572;10.174;2023-07-20T07:34:02;19.80;71.60
3298;DHT22;1661;53.572;10.174;2023-07-20T07:36:30;19.90;71.30
3298;DHT22;1661;53.572;10.174;2023-07-20T07:38:57;19.80;69.80
3298;DHT22;1661;53.572;10.174;2023-07-20T07:41:24;19.80;68.70
3298;DHT22;1661;53.572;10.174;2023-07-20T07:43:50;19.70;68.10
3298;DHT22;1661;53.572;10.174;2023-07-20T07:46:17;19.60;68.50
3298;DHT22;1661;53.572;10.174;2023-07-20T07:48:44;19.60;68.70
3298;DHT22;1661;53.572;10.174;2023-07-20T07:51:12;19.60;69.00
3298;DHT22;1661;53.572;10.174;2023-07-20T07:53:40;19.60;68.00
3298;DHT22;1661;53.572;10.174;2023-07-20T07:56:07;19.60;68.20
3298;DHT22;1661;53.572;10.174;2023-07-20T07:58:35;19.60;67.90
3298;DHT22;1661;53.572;10.174;2023-07-20T08:01:01;19.40;69.10
3298;DHT22;1661;53.572;10.174;2023-07-20T08:03:28;19.30;70.70
3298;DHT22;1661;53.572;10.174;2023-07-20T08:05:55;19.20;72.20
3298;DHT22;1661;53.572;10.174;2023-07-20T08:08:23;19.20;73.10
3298;DHT22;1661;53.572;10.174;2023-07-20T08:10:53;19.10;72.80
3298;DHT22;1661;53.572;10.174;2023-07-20T08:13:20;19.00;74.00
3298;DHT22;1661;53.572;10.174;2023-07-20T08:15:51;19.10;74.90
3298;DHT22;1661;53.572;10.174;2023-07-20T08:18:18;19.30;74.80
3298;DHT22;1661;53.572;10.174;2023-07-20T08:20:45;19.50;74.60
3298;DHT22;1661;53.572;10.174;2023-07-20T08:23:12;19.70;74.00
3298;DHT22;1661;53.572;10.174;2023-07-20T08:25:40;20.00;73.60
3298;DHT22;1661;53.572;10.174;2023-07-20T08:28:10;20.20;70.80
3298;DHT22;1661;53.572;10.174;2023-07-20T08:30:40;20.20;69.20
3298;DHT22;1661;53.572;10.174;2023-07-20T08:33:07;20.10;67.60
3298;DHT22;1661;53.572;10.174;2023-07-20T08:35:34;20.00;69.00
3298;DHT22;1661;53.572;10.174;2023-07-20T08:38:01;20.20;68.90
3298;DHT22;1661;53.572;10.174;2023-07-20T08:40:30;20.40;68.60
3298;DHT22;1661;53.572;10.174;2023-07-20T08:42:58;20.70;68.00
3298;DHT22;1661;53.572;10.174;2023-07-20T08:45:26;20.90;66.70
3298;DHT22;1661;53.572;10.174;2023-07-20T08:47:55;21.10;66.70
3298;DHT22;1661;53.572;10.174;2023-07-20T08:50:23;20.80;64.50
3298;DHT22;1661;53.572;10.174;2023-07-20T08:52:52;20.80;66.50
3298;DHT22;1661;53.572;10.174;2023-07-20T08:55:20;20.80;65.50
3298;DHT22;1661;53.572;10.174;2023-07-20T08:57:48;20.70;62.90
3298;DHT22;1661;53.572;10.174;2023-07-20T09:00:19;20.70;65.10
3298;DHT22;1661;53.572;10.174;2023-07-20T09:02:49;21.00;64.90
3298;DHT22;1661;53.572;10.174;2023-07-20T09:05:17;21.20;63.60
3298;DHT22;1661;53.572;10.174;2023-07-20T09:07:44;21.30;63.30
3298;DHT22;1661;53.572;10.174;2023-07-20T09:10:11;21.30;62.80
3298;DHT22;1661;53.572;10.174;2023-07-20T09:12:39;21.40;63.60
3298;DHT22;1661;53.572;10.174;2023-07-20T09:15:07;21.20;64.10
3298;DHT22;1661;53.572;10.174;2023-07-20T09:17:36;21.20;64.80
3298;DHT22;1661;53.572;10.174;2023-07-20T09:20:04;21.40;65.10
3298;DHT22;1661;53.572;10.174;2023-07-20T09:22:34;21.60;65.80
3298;DHT22;1661;53.572;10.174;2023-07-20T09:25:01;21.80;65.40
3298;DHT22;1661;53.572;10.174;2023-07-20T09:27:35;22.00;63.60
3298;DHT22;1661;53.572;10.174;2023-07-20T09:30:04;22.10;62.50
3298;DHT22;1661;53.572;10.174;2023-07-20T09:32:40;22.20;62.00
3298;DHT22;1661;53.572;10.174;2023-07-20T09:35:12;22.20;62.90
3298;DHT22;1661;53.572;10.174;2023-07-20T09:37:39;22.30;62.30
3298;DHT22;1661;53.572;10.174;2023-07-20T09:40:07;22.40;62.70
3298;DHT22;1661;53.572;10.174;2023-07-20T09:42:36;22.40;64.40
3298;DHT22;1661;53.572;10.174;2023-07-20T09:45:06;22.30;64.80
3298;DHT22;1661;53.572;10.174;2023-07-20T09:47:35;21.90;66.20
3298;DHT22;1661;53.572;10.174;2023-07-20T09:50:05;21.30;66.70
3298;DHT22;1661;53.572;10.174;2023-07-20T09:52:39;21.20;68.30
3298;DHT22;1661;53.572;10.174;2023-07-20T09:55:07;21.00;67.60
3298;DHT22;1661;53.572;10.174;2023-07-20T09:57:35;20.70;70.40
3298;DHT22;1661;53.572;10.174;2023-07-20T10:00:04;20.80;70.80
3298;DHT22;1661;53.572;10.174;2023-07-20T10:02:42;20.90;68.80
3298;DHT22;1661;53.572;10.174;2023-07-20T10:05:12;20.70;69.00
3298;DHT22;1661;53.572;10.174;2023-07-20T10:07:46;20.70;69.00
3298;DHT22;1661;53.572;10.174;2023-07-20T10:10:14;20.90;69.30
3298;DHT22;1661;53.572;10.174;2023-07-20T10:12:42;21.10;68.50
3298;DHT22;1661;53.572;10.174;2023-07-20T10:15:13;21.40;68.10
3298;DHT22;1661;53.572;10.174;2023-07-20T10:17:47;21.80;66.60
3298;DHT22;1661;53.572;10.174;2023-07-20T10:20:19;22.10;64.50
3298;DHT22;1661;53.572;10.174;2023-07-20T10:22:50;22.20;64.70
3298;DHT22;1661;53.572;10.174;2023-07-20T10:25:20;22.40;63.20
3298;DHT22;1661;53.572;10.174;2023-07-20T10:27:48;22.40;62.30
3298;DHT22;1661;53.572;10.174;2023-07-20T10:30:17;22.40;63.10
3298;DHT22;1661;53.572;10.174;2023-07-20T10:32:44;22.50;62.20
3298;DHT22;1661;53.572;10.174;2023-07-20T10:35:13;22.70;63.70
3298;DHT22;1661;53.572;10.174;2023-07-20T10:37:49;22.80;60.90
3298;DHT22;1661;53.572;10.174;2023-07-20T10:40:37;22.90;59.70
3298;DHT22;1661;53.572;10.174;2023-07-20T10:43:05;23.00;61.10
3298;DHT22;1661;53.572;10.174;2023-07-20T10:45:41;22.90;59.80
3298;DHT22;1661;53.572;10.174;2023-07-20T10:48:15;22.60;59.70
3298;DHT22;1661;53.572;10.174;2023-07-20T10:50:43;22.40;60.30
3298;DHT22;1661;53.572;10.174;2023-07-20T10:53:12;21.90;61.10
3298;DHT22;1661;53.572;10.174;2023-07-20T10:55:39;21.70;63.90
3298;DHT22;1661;53.572;10.174;2023-07-20T10:58:07;21.40;65.30
3298;DHT22;1661;53.572;10.174;2023-07-20T11:00:35;21.50;67.00
3298;DHT22;1661;53.572;10.174;2023-07-20T11:03:02;21.80;66.50
3298;DHT22;1661;53.572;10.174;2023-07-20T11:05:37;22.20;66.60
3298;DHT22;1661;53.572;10.174;2023-07-20T11:08:06;22.50;65.10
3298;DHT22;1661;53.572;10.174;2023-07-20T11:10:37;22.80;60.30
3298;DHT22;1661;53.572;10.174;2023-07-20T11:13:19;22.90;59.50
3298;DHT22;1661;53.572;10.174;2023-07-20T11:15:47;23.00;60.50
3298;DHT22;1661;53.572;10.174;2023-07-20T11:18:14;22.80;59.70
3298;DHT22;1661;53.572;10.174;2023-07-20T11:20:42;22.50;60.90
3298;DHT22;1661;53.572;10.174;2023-07-20T11:23:09;22.50;61.70
3298;DHT22;1661;53.572;10.174;2023-07-20T11:25:39;22.60;63.20
3298;DHT22;1661;53.572;10.174;2023-07-20T11:28:09;22.60;65.10
3298;DHT22;1661;53.572;10.174;2023-07-20T11:30:36;22.40;65.50
3298;DHT22;1661;53.572;10.174;2023-07-20T11:33:04;21.90;67.60
3298;DHT22;1661;53.572;10.174;2023-07-20T11:35:34;21.40;69.70
3298;DHT22;1661;53.572;10.174;2023-07-20T11:38:02;21.30;70.60
3298;DHT22;1661;53.572;10.174;2023-07-20T11:40:29;21.10;69.70
3298;DHT22;1661;53.572;10.174;2023-07-20T11:42:57;21.00;70.20
3298;DHT22;1661;53.572;10.174;2023-07-20T11:45:25;20.90;68.40
3298;DHT22;1661;53.572;10.174;2023-07-20T11:47:53;20.90;71.50
3298;DHT22;1661;53.572;10.174;2023-07-20T11:50:19;21.10;70.50
3298;DHT22;1661;53.572;10.174;2023-07-20T11:52:46;21.20;67.80
3298;DHT22;1661;53.572;10.174;2023-07-20T11:55:13;21.00;67.50
3298;DHT22;1661;53.572;10.174;2023-07-20T11:57:40;21.00;67.60
3298;DHT22;1661;53.572;10.174;2023-07-20T12:00:10;21.00;67.70
3298;DHT22;1661;53.572;10.174;2023-07-20T12:02:38;21.10;65.80
3298;DHT22;1661;53.572;10.174;2023-07-20T12:05:08;21.20;66.70
3298;DHT22;1661;53.572;10.174;2023-07-20T12:07:36;21.30;65.00
3298;DHT22;1661;53.572;10.174;2023-07-20T12:10:06;21.30;66.40
3298;DHT22;1661;53.572;10.174;2023-07-20T12:12:34;21.40;64.10
3298;DHT22;1661;53.572;10.174;2023-07-20T12:15:19;21.50;66.00
3298;DHT22;1661;53.572;10.174;2023-07-20T12:17:48;21.50;68.30
3298;DHT22;1661;53.572;10.174;2023-07-20T12:20:25;21.50;68.40
3298;DHT22;1661;53.572;10.174;2023-07-20T12:22:52;21.50;66.40
3298;DHT22;1661;53.572;10.174;2023-07-20T12:25:19;21.30;67.00
3298;DHT22;1661;53.572;10.174;2023-07-20T12:27:47;21.30;67.50
3298;DHT22;1661;53.572;10.174;2023-07-20T12:30:14;21.30;67.70
3298;DHT22;1661;53.572;10.174;2023-07-20T12:32:42;21.00;67.10
3298;DHT22;1661;53.572;10.174;2023-07-20T12:35:09;21.00;69.00
3298;DHT22;1661;53.572;10.174;2023-07-20T12:37:37;20.90;69.50
3298;DHT22;1661;53.572;10.174;2023-07-20T12:40:04;21.00;69.80
3298;DHT22;1661;53.572;10.174;2023-07-20T12:42:36;20.90;68.70
3298;DHT22;1661;53.572;10.174;2023-07-20T12:45:05;20.30;70.30
3298;DHT22;1661;53.572;10.174;2023-07-20T12:47:32;20.00;71.90
3298;DHT22;1661;53.572;10.174;2023-07-20T12:50:00;20.00;72.70
3298;DHT22;1661;53.572;10.174;2023-07-20T12:52:27;20.00;73.10
3298;DHT22;1661;53.572;10.174;2023-07-20T12:54:54;20.30;73.50
3298;DHT22;1661;53.572;10.174;2023-07-20T12:57:20;20.60;73.90
3298;DHT22;1661;53.572;10.174;2023-07-20T12:59:47;20.60;71.20
3298;DHT22;1661;53.572;10.174;2023-07-20T13:02:14;20.60;71.20
3298;DHT22;1661;53.572;10.174;2023-07-20T13:04:41;20.80;72.80
3298;DHT22;1661;53.572;10.174;2023-07-20T13:07:10;20.80;72.70
3298;DHT22;1661;53.572;10.174;2023-07-20T13:09:37;20.90;71.50
3298;DHT22;1661;53.572;10.174;2023-07-20T13:12:05;21.00;72.20
3298;DHT22;1661;53.572;10.174;2023-07-20T13:14:31;21.10;72.50
3298;DHT22;1661;53.572;10.174;2023-07-20T13:16:58;21.20;71.40
3298;DHT22;1661;53.572;10.174;2023-07-20T13:19:25;21.00;70.00
3298;DHT22;1661;53.572;10.174;2023-07-20T13:21:52;21.10;71.50
3298;DHT22;1661;53.572;10.174;2023-07-20T13:24:20;21.30;71.40
3298;DHT22;1661;53.572;10.174;2023-07-20T13:26:47;21.20;68.20
3298;DHT22;1661;53.572;10.174;2023-07-20T13:29:14;21.30;69.40
3298;DHT22;1661;53.572;10.174;2023-07-20T13:31:41;21.60;70.50
3298;DHT22;1661;53.572;10.174;2023-07-20T13:34:07;21.60;67.60
3298;DHT22;1661;53.572;10.174;2023-07-20T13:36:34;21.50;68.10
3298;DHT22;1661;53.572;10.174;2023-07-20T13:39:01;21.80;68.50
3298;DHT22;1661;53.572;10.174;2023-07-20T13:41:31;21.80;68.00
3298;DHT22;1661;53.572;10.174;2023-07-20T13:43:58;21.80;67.20
3298;DHT22;1661;53.572;10.174;2023-07-20T13:46:25;21.90;65.50
3298;DHT22;1661;53.572;10.174;2023-07-20T13:48:52;21.90;65.30
3298;DHT22;1661;53.572;10.174;2023-07-20T13:51:18;21.90;64.90
3298;DHT22;1661;53.572;10.174;2023-07-20T13:53:45;21.80;65.20
3298;DHT22;1661;53.572;10.174;2023-07-20T13:56:12;21.80;66.90
3298;DHT22;1661;53.572;10.174;2023-07-20T13:58:40;21.90;66.90
3298;DHT22;1661;53.572;10.174;2023-07-20T14:01:07;22.10;66.90
3298;DHT22;1661;53.572;10.174;2023-07-20T14:03:34;22.40;66.50
3298;DHT22;1661;53.572;10.174;2023-07-20T14:06:01;22.50;65.40
3298;DHT22;1661;53.572;10.174;2023-07-20T14:08:28;22.50;61.80
3298;DHT22;1661;53.572;10.174;2023-07-20T14:10:55;22.50;60.20
3298;DHT22;1661;53.572;10.174;2023-07-20T14:13:22;22.50;61.90
3298;DHT22;1661;53.572;10.174;2023-07-20T14:15:50;22.60;59.60
3298;DHT22;1661;53.572;10.174;2023-07-20T14:18:17;22.20;58.00
3298;DHT22;1661;53.572;10.174;2023-07-20T14:20:44;22.00;61.80
3298;DHT22;1661;53.572;10.174;2023-07-20T14:23:11;22.30;63.70
3298;DHT22;1661;53.572;10.174;2023-07-20T14:25:38;22.40;60.60
3298;DHT22;1661;53.572;10.174;2023-07-20T14:28:05;22.50;60.80
3298;DHT22;1661;53.572;10.174;2023-07-20T14:30:32;22.80;61.20
3298;DHT22;1661;53.572;10.174;2023-07-20T14:33:00;23.00;58.50
3298;DHT22;1661;53.572;10.174;2023-07-20T14:35:27;22.40;58.60
3298;DHT22;1661;53.572;10.174;2023-07-20T14:37:54;22.30;59.40
3298;DHT22;1661;53.572;10.174;2023-07-20T14:40:21;22.30;61.50
3298;DHT22;1661;53.572;10.174;2023-07-20T14:42:47;22.10;59.20
3298;DHT22;1661;53.572;10.174;2023-07-20T14:45:14;22.10;58.20
3298;DHT22;1661;53.572;10.174;2023-07-20T14:47:41;22.00;61.90
3298;DHT22;1661;53.572;10.174;2023-07-20T14:50:10;22.30;60.30
3298;DHT22;1661;53.572;10.174;2023-07-20T14:52:37;22.60;59.50
3298;DHT22;1661;53.572;10.174;2023-07-20T14:55:04;22.40;58.00
3298;DHT22;1661;53.572;10.174;2023-07-20T14:57:31;22.60;57.60
3298;DHT22;1661;53.572;10.174;2023-07-20T14:59:58;22.50;54.30
3298;DHT22;1661;53.572;10.174;2023-07-20T15:02:25;22.70;56.70
3298;DHT22;1661;53.572;10.174;2023-07-20T15:04:52;22.90;54.70
3298;DHT22;1661;53.572;10.174;2023-07-20T15:07:21;23.10;56.40
3298;DHT22;1661;53.572;10.174;2023-07-20T15:09:48;23.40;57.50
3298;DHT22;1661;53.572;10.174;2023-07-20T15:12:15;23.70;53.50
3298;DHT22;1661;53.572;10.174;2023-07-20T15:14:42;23.50;53.50
3298;DHT22;1661;53.572;10.174;2023-07-20T15:17:09;23.40;56.90
3298;DHT22;1661;53.572;10.174;2023-07-20T15:19:36;23.60;54.40
3298;DHT22;1661;53.572;10.174;2023-07-20T15:22:03;23.60;52.80
3298;DHT22;1661;53.572;10.174;2023-07-20T15:24:32;23.60;55.50
3298;DHT22;1661;53.572;10.174;2023-07-20T15:26:59;23.50;52.00
3298;DHT22;1661;53.572;10.174;2023-07-20T15:29:27;23.40;51.80
3298;DHT22;1661;53.572;10.174;2023-07-20T15:31:54;23.50;53.30
3298;DHT22;1661;53.572;10.174;2023-07-20T15:34:21;23.50;53.40
3298;DHT22;1661;53.572;10.174;2023-07-20T15:36:48;23.50;55.80
3298;DHT22;1661;53.572;10.174;2023-07-20T15:39:14;23.60;54.50
3298;DHT22;1661;53.572;10.174;2023-07-20T15:41:42;23.50;55.40
3298;DHT22;1661;53.572;10.174;2023-07-20T15:44:09;23.50;55.30
3298;DHT22;1661;53.572;10.174;2023-07-20T15:46:46;23.60;54.70
3298;DHT22;1661;53.572;10.174;2023-07-20T15:49:13;23.50;52.10
3298;DHT22;1661;53.572;10.174;2023-07-20T15:51:40;23.50;56.00